createdAt,value
2022-11-08T00:00:02.377Z,0.00
2022-11-08T00:01:02.350Z,0.00
2022-11-08T00:02:02.532Z,0.00
2022-11-08T00:03:02.400Z,0.00
2022-11-08T00:04:02.329Z,0.00
2022-11-08T00:05:02.314Z,0.00
2022-11-08T00:06:02.301Z,0.00
2022-11-08T00:07:02.284Z,0.00
2022-11-08T00:08:02.309Z,0.00
2022-11-08T00:09:02.281Z,0.00
2022-11-08T00:10:02.257Z,0.00
2022-11-08T00:11:02.245Z,0.00
2022-11-08T00:12:02.239Z,0.00
2022-11-08T00:13:02.238Z,0.00
2022-11-08T00:14:02.215Z,0.00
2022-11-08T00:15:02.229Z,0.00
2022-11-08T00:16:02.204Z,0.00
2022-11-08T00:17:02.196Z,0.00
2022-11-08T00:18:02.197Z,0.00
2022-11-08T00:19:02.158Z,0.00
2022-11-08T00:20:02.162Z,0.00
2022-11-08T00:21:02.173Z,0.00
2022-11-08T00:22:02.131Z,0.00
2022-11-08T00:23:02.129Z,0.00
2022-11-08T00:24:02.139Z,0.00
2022-11-08T00:25:02.105Z,0.00
2022-11-08T00:26:02.100Z,0.00
2022-11-08T00:27:02.074Z,0.00
2022-11-08T00:28:02.082Z,0.00
2022-11-08T00:29:02.094Z,0.00
2022-11-08T00:30:02.057Z,0.00
2022-11-08T00:31:02.033Z,0.00
2022-11-08T00:32:02.033Z,0.00
2022-11-08T00:33:02.017Z,0.00
2022-11-08T00:34:02.009Z,0.00
2022-11-08T00:35:02.014Z,0.00
2022-11-08T00:36:01.999Z,0.00
2022-11-08T00:37:01.966Z,0.00
2022-11-08T00:38:01.972Z,0.00
2022-11-08T00:39:02.088Z,0.00
2022-11-08T00:40:01.969Z,0.00
2022-11-08T00:41:01.955Z,0.00
2022-11-08T00:42:01.922Z,0.00
2022-11-08T00:43:01.899Z,0.00
2022-11-08T00:44:01.907Z,0.00
2022-11-08T00:45:01.890Z,0.00
2022-11-08T00:46:01.894Z,0.00
2022-11-08T00:47:01.859Z,0.00
2022-11-08T00:48:01.877Z,0.00
2022-11-08T00:49:02.009Z,0.00
2022-11-08T00:50:01.829Z,0.00
2022-11-08T00:51:01.839Z,0.00
2022-11-08T00:52:01.819Z,0.00
2022-11-08T00:53:01.796Z,0.00
2022-11-08T00:54:01.792Z,0.00
2022-11-08T00:55:01.781Z,0.00
2022-11-08T00:56:01.781Z,0.00
2022-11-08T00:57:01.786Z,0.00
2022-11-08T00:58:01.742Z,0.00
2022-11-08T00:59:01.735Z,0.00
2022-11-08T01:00:01.736Z,0.00
2022-11-08T01:01:01.770Z,0.00
2022-11-08T01:02:01.809Z,0.00
2022-11-08T01:03:01.710Z,0.00
2022-11-08T01:04:01.689Z,0.00
2022-11-08T01:05:01.694Z,0.00
2022-11-08T01:06:01.658Z,0.00
2022-11-08T01:07:01.637Z,0.00
2022-11-08T01:08:01.659Z,0.00
2022-11-08T01:09:01.619Z,0.00
2022-11-08T01:10:01.635Z,0.00
2022-11-08T01:11:01.624Z,0.00
2022-11-08T01:12:01.605Z,0.00
2022-11-08T01:13:01.583Z,0.00
2022-11-08T01:14:01.573Z,0.00
2022-11-08T01:15:01.649Z,0.00
2022-11-08T01:16:01.566Z,0.00
2022-11-08T01:17:01.568Z,0.00
2022-11-08T01:18:01.543Z,0.00
2022-11-08T01:19:01.513Z,0.00
2022-11-08T01:20:01.551Z,0.00
2022-11-08T01:21:01.491Z,0.00
2022-11-08T01:22:01.507Z,0.00
2022-11-08T01:23:01.479Z,0.00
2022-11-08T01:24:01.474Z,0.00
2022-11-08T01:25:01.480Z,0.00
2022-11-08T01:26:01.469Z,0.00
2022-11-08T01:27:01.425Z,0.00
2022-11-08T01:28:01.471Z,0.00
2022-11-08T01:29:01.408Z,0.00
2022-11-08T01:30:01.431Z,0.00
2022-11-08T01:31:01.386Z,0.00
2022-11-08T01:32:01.380Z,0.00
2022-11-08T01:33:01.390Z,0.00
2022-11-08T01:34:01.350Z,0.00
2022-11-08T01:35:01.345Z,0.00
2022-11-08T01:36:01.347Z,0.00
2022-11-08T01:37:01.320Z,0.00
2022-11-08T01:38:01.344Z,0.00
2022-11-08T01:39:01.302Z,0.00
2022-11-08T01:40:01.290Z,0.00
2022-11-08T01:41:01.288Z,0.00
2022-11-08T01:42:01.266Z,0.00
2022-11-08T01:43:01.246Z,0.00
2022-11-08T01:44:01.281Z,0.00
2022-11-08T01:45:01.241Z,0.00
2022-11-08T01:46:01.235Z,0.00
2022-11-08T01:47:01.208Z,0.00
2022-11-08T01:48:01.215Z,0.00
2022-11-08T01:49:01.205Z,0.00
2022-11-08T01:50:01.193Z,0.00
2022-11-08T01:51:01.162Z,0.00
2022-11-08T01:52:01.170Z,0.00
2022-11-08T01:53:01.146Z,0.00
2022-11-08T01:54:01.144Z,0.00
2022-11-08T01:55:01.139Z,0.00
2022-11-08T01:56:01.124Z,0.00
2022-11-08T01:57:01.115Z,0.00
2022-11-08T01:58:01.105Z,0.00
2022-11-08T01:59:01.089Z,0.00
2022-11-08T02:00:01.094Z,0.00
2022-11-08T02:01:01.119Z,0.00
2022-11-08T02:02:01.151Z,0.00
2022-11-08T02:03:01.053Z,0.00
2022-11-08T02:04:01.039Z,0.00
2022-11-08T02:05:01.018Z,0.00
2022-11-08T02:06:01.007Z,0.00
2022-11-08T02:07:01.047Z,0.00
2022-11-08T02:08:01.020Z,0.00
2022-11-08T02:09:00.979Z,0.00
2022-11-08T02:10:00.996Z,0.00
2022-11-08T02:11:00.972Z,0.00
2022-11-08T02:12:00.957Z,0.00
2022-11-08T02:13:04.812Z,0.00
2022-11-08T02:14:00.921Z,0.00
2022-11-08T02:15:00.901Z,0.00
2022-11-08T02:16:00.922Z,0.00
2022-11-08T02:17:00.896Z,0.00
2022-11-08T02:18:00.886Z,0.00
2022-11-08T02:19:00.880Z,0.00
2022-11-08T02:20:00.881Z,0.00
2022-11-08T02:21:00.853Z,0.00
2022-11-08T02:22:00.838Z,0.00
2022-11-08T02:23:00.831Z,0.00
2022-11-08T02:24:00.809Z,0.00
2022-11-08T02:25:00.818Z,0.00
2022-11-08T02:26:00.799Z,0.00
2022-11-08T02:27:00.807Z,0.00
2022-11-08T02:28:00.767Z,0.00
2022-11-08T02:29:00.776Z,0.00
2022-11-08T02:30:00.769Z,0.00
2022-11-08T02:31:00.746Z,0.00
2022-11-08T02:32:00.725Z,0.00
2022-11-08T02:33:00.717Z,0.00
2022-11-08T02:34:00.706Z,0.00
2022-11-08T02:35:00.731Z,0.00
2022-11-08T02:36:00.681Z,0.00
2022-11-08T02:37:00.691Z,0.00
2022-11-08T02:38:00.660Z,0.00
2022-11-08T02:39:00.658Z,0.00
2022-11-08T02:40:00.680Z,0.00
2022-11-08T02:41:00.627Z,0.00
2022-11-08T02:42:00.650Z,0.00
2022-11-08T02:43:00.623Z,0.00
2022-11-08T02:44:00.591Z,0.00
2022-11-08T02:45:00.599Z,0.00
2022-11-08T02:46:00.570Z,0.00
2022-11-08T02:47:00.590Z,0.00
2022-11-08T02:48:00.560Z,0.00
2022-11-08T02:49:00.549Z,0.00
2022-11-08T02:50:00.555Z,0.00
2022-11-08T02:51:00.539Z,0.00
2022-11-08T02:52:00.522Z,0.00
2022-11-08T02:53:00.514Z,0.00
2022-11-08T02:54:00.496Z,0.00
2022-11-08T02:55:00.483Z,0.00
2022-11-08T02:56:00.484Z,0.00
2022-11-08T02:57:00.495Z,0.00
2022-11-08T02:58:00.450Z,0.00
2022-11-08T02:59:00.450Z,0.00
2022-11-08T03:00:00.429Z,0.00
2022-11-08T03:01:00.503Z,0.00
2022-11-08T03:02:00.589Z,0.00
2022-11-08T03:03:00.399Z,0.00
2022-11-08T03:04:00.388Z,0.00
2022-11-08T03:05:00.368Z,0.00
2022-11-08T03:06:00.366Z,0.00
2022-11-08T03:07:00.392Z,0.00
2022-11-08T03:08:00.326Z,0.00
2022-11-08T03:09:00.341Z,0.00
2022-11-08T03:10:00.315Z,0.00
2022-11-08T03:11:00.310Z,0.00
2022-11-08T03:12:00.310Z,0.00
2022-11-08T03:13:00.315Z,0.00
2022-11-08T03:14:00.287Z,0.00
2022-11-08T03:15:00.279Z,0.00
2022-11-08T03:16:00.248Z,0.00
2022-11-08T03:17:00.255Z,0.00
2022-11-08T03:18:00.346Z,0.00
2022-11-08T03:19:00.241Z,0.00
2022-11-08T03:20:00.208Z,0.00
2022-11-08T03:21:00.215Z,0.00
2022-11-08T03:22:00.190Z,0.00
2022-11-08T03:23:00.190Z,0.00
2022-11-08T03:24:00.198Z,0.00
2022-11-08T03:25:00.158Z,0.00
2022-11-08T03:26:00.155Z,0.00
2022-11-08T03:27:00.148Z,0.00
2022-11-08T03:28:00.118Z,0.00
2022-11-08T03:29:00.151Z,0.00
2022-11-08T03:30:00.096Z,0.00
2022-11-08T03:31:00.098Z,0.00
2022-11-08T03:32:00.103Z,0.00
2022-11-08T03:33:00.081Z,0.00
2022-11-08T03:34:00.058Z,0.00
2022-11-08T03:35:00.078Z,0.00
2022-11-08T03:36:00.035Z,0.00
2022-11-08T03:37:00.036Z,0.00
2022-11-08T03:38:00.021Z,0.00
2022-11-08T03:39:00.042Z,0.00
2022-11-08T03:39:59.986Z,0.00
2022-11-08T03:40:59.983Z,0.00
2022-11-08T03:41:59.977Z,0.00
2022-11-08T03:42:59.969Z,0.00
2022-11-08T03:43:59.939Z,0.00
2022-11-08T03:45:00.020Z,0.00
2022-11-08T03:45:59.946Z,0.00
2022-11-08T03:46:59.928Z,0.00
2022-11-08T03:47:59.908Z,0.00
2022-11-08T03:48:59.943Z,0.00
2022-11-08T03:49:59.953Z,0.00
2022-11-08T03:50:59.893Z,0.00
2022-11-08T03:51:59.883Z,0.00
2022-11-08T03:52:59.891Z,0.00
2022-11-08T03:53:59.952Z,0.00
2022-11-08T03:54:59.847Z,0.00
2022-11-08T03:55:59.831Z,0.00
2022-11-08T03:56:59.817Z,0.00
2022-11-08T03:57:59.803Z,0.00
2022-11-08T03:58:59.822Z,0.00
2022-11-08T03:59:59.827Z,0.00
2022-11-08T04:00:59.850Z,0.00
2022-11-08T04:01:59.940Z,0.00
2022-11-08T04:02:59.752Z,0.00
2022-11-08T04:03:59.739Z,0.00
2022-11-08T04:04:59.731Z,0.00
2022-11-08T04:05:59.744Z,0.00
2022-11-08T04:06:59.726Z,0.00
2022-11-08T04:07:59.694Z,0.00
2022-11-08T04:08:59.708Z,0.00
2022-11-08T04:09:59.681Z,0.00
2022-11-08T04:10:59.677Z,0.00
2022-11-08T04:11:59.680Z,0.00
2022-11-08T04:12:59.653Z,0.00
2022-11-08T04:13:59.634Z,0.00
2022-11-08T04:14:59.636Z,0.00
2022-11-08T04:15:59.661Z,0.00
2022-11-08T04:16:59.647Z,0.00
2022-11-08T04:17:59.610Z,0.00
2022-11-08T04:18:59.590Z,0.00
2022-11-08T04:19:59.658Z,0.00
2022-11-08T04:20:59.555Z,0.00
2022-11-08T04:21:59.545Z,0.00
2022-11-08T04:22:59.566Z,0.00
2022-11-08T04:23:59.515Z,0.00
2022-11-08T04:24:59.524Z,0.00
2022-11-08T04:25:59.499Z,0.00
2022-11-08T04:26:59.515Z,0.00
2022-11-08T04:27:59.502Z,0.00
2022-11-08T04:28:59.487Z,0.00
2022-11-08T04:29:59.466Z,0.00
2022-11-08T04:30:59.519Z,0.00
2022-11-08T04:31:59.471Z,0.00
2022-11-08T04:32:59.433Z,0.00
2022-11-08T04:33:59.451Z,0.00
2022-11-08T04:34:59.424Z,0.00
2022-11-08T04:35:59.394Z,0.00
2022-11-08T04:36:59.401Z,0.00
2022-11-08T04:37:59.373Z,0.00
2022-11-08T04:38:59.423Z,0.00
2022-11-08T04:39:59.369Z,0.00
2022-11-08T04:40:59.340Z,0.00
2022-11-08T04:42:02.460Z,0.00
2022-11-08T04:42:59.333Z,0.00
2022-11-08T04:43:59.308Z,0.00
2022-11-08T04:44:59.323Z,0.00
2022-11-08T04:45:59.293Z,0.00
2022-11-08T04:46:59.288Z,0.00
2022-11-08T04:47:59.275Z,0.00
2022-11-08T04:48:59.279Z,0.00
2022-11-08T04:49:59.289Z,0.00
2022-11-08T04:50:59.247Z,0.00
2022-11-08T04:51:59.222Z,0.00
2022-11-08T04:52:59.224Z,0.00
2022-11-08T04:53:59.204Z,0.00
2022-11-08T04:54:59.214Z,0.00
2022-11-08T04:55:59.202Z,0.00
2022-11-08T04:56:59.181Z,0.00
2022-11-08T04:57:59.167Z,0.00
2022-11-08T04:58:59.162Z,0.00
2022-11-08T04:59:59.133Z,0.00
2022-11-08T05:00:59.274Z,0.00
2022-11-08T05:01:59.230Z,0.00
2022-11-08T05:02:59.163Z,0.00
2022-11-08T05:03:59.099Z,0.00
2022-11-08T05:04:59.091Z,0.00
2022-11-08T05:05:59.113Z,0.00
2022-11-08T05:06:59.076Z,0.00
2022-11-08T05:07:59.043Z,0.00
2022-11-08T05:08:59.060Z,0.00
2022-11-08T05:10:02.339Z,0.00
2022-11-08T05:10:59.031Z,0.00
2022-11-08T05:11:59.040Z,0.00
2022-11-08T05:12:59.002Z,0.00
2022-11-08T05:13:59.011Z,0.00
2022-11-08T05:14:59.014Z,0.00
2022-11-08T05:15:58.965Z,0.00
2022-11-08T05:16:58.977Z,0.00
2022-11-08T05:17:58.945Z,0.00
2022-11-08T05:18:58.946Z,0.00
2022-11-08T05:19:58.931Z,0.00
2022-11-08T05:20:58.917Z,0.00
2022-11-08T05:21:58.933Z,0.00
2022-11-08T05:22:58.910Z,0.00
2022-11-08T05:23:58.879Z,0.00
2022-11-08T05:24:58.896Z,0.00
2022-11-08T05:25:58.892Z,0.00
2022-11-08T05:26:58.857Z,0.00
2022-11-08T05:27:58.860Z,0.00
2022-11-08T05:28:58.827Z,0.00
2022-11-08T05:29:58.838Z,0.00
2022-11-08T05:30:58.819Z,0.00
2022-11-08T05:31:58.815Z,0.00
2022-11-08T05:32:58.791Z,0.00
2022-11-08T05:33:58.774Z,0.00
2022-11-08T05:34:58.776Z,0.00
2022-11-08T05:36:03.354Z,0.00
2022-11-08T05:36:58.764Z,0.00
2022-11-08T05:37:58.744Z,0.00
2022-11-08T05:38:58.733Z,0.00
2022-11-08T05:39:58.727Z,0.00
2022-11-08T05:40:58.731Z,0.00
2022-11-08T05:41:58.704Z,0.00
2022-11-08T05:42:58.705Z,0.00
2022-11-08T05:43:58.666Z,0.00
2022-11-08T05:44:58.673Z,0.00
2022-11-08T05:45:58.669Z,0.00
2022-11-08T05:46:58.661Z,0.00
2022-11-08T05:47:58.630Z,0.00
2022-11-08T05:48:58.773Z,0.00
2022-11-08T05:50:05.101Z,0.00
2022-11-08T05:50:58.666Z,0.00
2022-11-08T05:51:58.584Z,0.00
2022-11-08T05:52:58.581Z,0.00
2022-11-08T05:53:58.568Z,0.00
2022-11-08T05:54:58.568Z,0.00
2022-11-08T05:55:58.550Z,0.00
2022-11-08T05:56:58.564Z,0.00
2022-11-08T05:57:58.517Z,0.00
2022-11-08T05:58:58.528Z,0.00
2022-11-08T05:59:58.499Z,0.00
2022-11-08T06:00:58.500Z,0.00
2022-11-08T06:01:58.552Z,0.00
2022-11-08T06:02:58.528Z,0.00
2022-11-08T06:03:58.465Z,0.00
2022-11-08T06:04:58.465Z,0.00
2022-11-08T06:05:58.437Z,0.00
2022-11-08T06:06:58.448Z,0.00
2022-11-08T06:07:58.428Z,0.00
2022-11-08T06:08:58.401Z,0.00
2022-11-08T06:09:58.394Z,0.00
2022-11-08T06:10:58.393Z,0.00
2022-11-08T06:11:58.374Z,0.00
2022-11-08T06:12:58.330Z,0.00
2022-11-08T06:13:58.292Z,0.00
2022-11-08T06:14:58.302Z,0.00
2022-11-08T06:15:58.280Z,0.00
2022-11-08T06:16:58.308Z,0.00
2022-11-08T06:17:58.274Z,0.00
2022-11-08T06:18:58.268Z,0.00
2022-11-08T06:19:58.238Z,0.00
2022-11-08T06:20:58.250Z,0.00
2022-11-08T06:21:58.317Z,0.00
2022-11-08T06:22:58.282Z,0.00
2022-11-08T06:23:58.236Z,0.00
2022-11-08T06:24:58.284Z,0.00
2022-11-08T06:25:58.180Z,0.00
2022-11-08T06:26:58.203Z,0.00
2022-11-08T06:27:58.190Z,0.00
2022-11-08T06:28:58.309Z,0.00
2022-11-08T06:29:58.146Z,0.00
2022-11-08T06:30:58.149Z,0.00
2022-11-08T06:31:58.149Z,0.00
2022-11-08T06:32:58.125Z,0.00
2022-11-08T06:33:58.117Z,0.00
2022-11-08T06:34:58.116Z,0.00
2022-11-08T06:35:58.101Z,0.00
2022-11-08T06:36:58.049Z,0.00
2022-11-08T06:38:01.130Z,0.00
2022-11-08T06:38:58.139Z,0.00
2022-11-08T06:39:58.033Z,0.00
2022-11-08T06:40:58.040Z,0.00
2022-11-08T06:41:58.027Z,0.00
2022-11-08T06:42:57.993Z,0.00
2022-11-08T06:43:57.994Z,0.00
2022-11-08T06:44:57.994Z,0.00
2022-11-08T06:45:57.991Z,0.00
2022-11-08T06:46:57.949Z,0.00
2022-11-08T06:47:58.072Z,0.00
2022-11-08T06:48:57.931Z,0.00
2022-11-08T06:49:57.950Z,0.00
2022-11-08T06:50:57.919Z,0.00
2022-11-08T06:51:57.979Z,0.00
2022-11-08T06:52:57.959Z,0.00
2022-11-08T06:53:57.895Z,0.00
2022-11-08T06:54:58.143Z,5.62
2022-11-08T06:55:57.912Z,5.62
2022-11-08T06:56:57.869Z,5.62
2022-11-08T06:57:57.865Z,5.62
2022-11-08T06:58:57.871Z,5.62
2022-11-08T06:59:57.836Z,5.62
2022-11-08T07:00:57.840Z,5.62
2022-11-08T07:01:57.939Z,5.62
2022-11-08T07:02:57.959Z,5.62
2022-11-08T07:03:57.801Z,5.62
2022-11-08T07:04:57.788Z,5.62
2022-11-08T07:05:57.763Z,5.62
2022-11-08T07:06:57.775Z,5.62
2022-11-08T07:07:57.729Z,5.62
2022-11-08T07:08:57.718Z,11.25
2022-11-08T07:10:03.553Z,11.25
2022-11-08T07:10:57.710Z,11.25
2022-11-08T07:11:57.811Z,11.25
2022-11-08T07:12:57.689Z,11.25
2022-11-08T07:13:57.674Z,11.25
2022-11-08T07:14:57.686Z,11.25
2022-11-08T07:15:57.656Z,11.25
2022-11-08T07:16:57.632Z,11.25
2022-11-08T07:17:57.701Z,11.25
2022-11-08T07:18:57.614Z,11.25
2022-11-08T07:19:57.643Z,11.25
2022-11-08T07:20:57.601Z,11.25
2022-11-08T07:21:57.616Z,11.25
2022-11-08T07:22:57.577Z,16.88
2022-11-08T07:23:57.698Z,16.88
2022-11-08T07:24:57.576Z,16.88
2022-11-08T07:25:57.564Z,16.88
2022-11-08T07:26:57.544Z,16.88
2022-11-08T07:27:57.562Z,16.88
2022-11-08T07:28:57.511Z,16.88
2022-11-08T07:29:57.678Z,16.88
2022-11-08T07:30:57.500Z,16.88
2022-11-08T07:31:57.618Z,16.88
2022-11-08T07:32:57.499Z,16.88
2022-11-08T07:33:57.475Z,16.88
2022-11-08T07:34:57.461Z,16.88
2022-11-08T07:35:57.475Z,22.50
2022-11-08T07:36:57.457Z,22.50
2022-11-08T07:37:57.551Z,22.50
2022-11-08T07:38:59.302Z,22.50
2022-11-08T07:39:57.643Z,22.50
2022-11-08T07:40:57.386Z,22.50
2022-11-08T07:41:57.400Z,22.50
2022-11-08T07:43:11.324Z,22.50
2022-11-08T07:43:57.416Z,22.50
2022-11-08T07:44:57.368Z,22.50
2022-11-08T07:45:57.389Z,22.50
2022-11-08T07:46:57.411Z,22.50
2022-11-08T07:47:57.377Z,22.50
2022-11-08T07:48:57.319Z,22.50
2022-11-08T07:49:57.368Z,22.50
2022-11-08T07:50:57.335Z,22.50
2022-11-08T07:51:57.292Z,22.50
2022-11-08T07:52:57.348Z,28.12
2022-11-08T07:54:02.640Z,28.12
2022-11-08T07:54:57.395Z,28.12
2022-11-08T07:55:57.277Z,28.12
2022-11-08T07:56:57.229Z,28.12
2022-11-08T07:57:57.230Z,28.12
2022-11-08T07:58:57.271Z,28.12
2022-11-08T07:59:57.350Z,28.12
2022-11-08T08:00:57.234Z,28.12
2022-11-08T08:01:57.373Z,28.12
2022-11-08T08:02:57.363Z,28.12
2022-11-08T08:03:57.147Z,28.12
2022-11-08T08:04:57.152Z,28.12
2022-11-08T08:06:00.969Z,28.12
2022-11-08T08:06:57.208Z,28.12
2022-11-08T08:07:57.189Z,28.12
2022-11-08T08:08:57.070Z,28.12
2022-11-08T08:09:57.168Z,28.12
2022-11-08T08:10:57.105Z,28.12
2022-11-08T08:11:57.117Z,33.75
2022-11-08T08:12:57.057Z,33.75
2022-11-08T08:13:57.036Z,33.75
2022-11-08T08:14:57.037Z,33.75
2022-11-08T08:15:57.048Z,39.38
2022-11-08T08:16:56.982Z,39.38
2022-11-08T08:17:57.092Z,39.38
2022-11-08T08:18:57.037Z,39.38
2022-11-08T08:19:57.054Z,39.38
2022-11-08T08:20:57.038Z,39.38
2022-11-08T08:21:56.993Z,39.38
2022-11-08T08:22:56.969Z,39.38
2022-11-08T08:23:56.983Z,39.38
2022-11-08T08:25:01.802Z,39.38
2022-11-08T08:25:56.968Z,39.38
2022-11-08T08:26:56.921Z,39.38
2022-11-08T08:27:56.927Z,39.38
2022-11-08T08:28:56.851Z,45.00
2022-11-08T08:29:56.852Z,45.00
2022-11-08T08:30:56.859Z,45.00
2022-11-08T08:31:57.082Z,50.62
2022-11-08T08:33:21.882Z,50.62
2022-11-08T08:33:56.819Z,50.62
2022-11-08T08:34:56.793Z,50.62
2022-11-08T08:35:56.813Z,50.62
2022-11-08T08:36:56.840Z,50.62
2022-11-08T08:37:56.790Z,50.62
2022-11-08T08:38:56.760Z,50.62
2022-11-08T08:39:56.769Z,50.62
2022-11-08T08:40:56.752Z,56.25
2022-11-08T08:41:56.750Z,50.62
2022-11-08T08:42:56.751Z,50.62
2022-11-08T08:43:56.715Z,50.62
2022-11-08T08:44:56.684Z,56.25
2022-11-08T08:45:56.703Z,50.62
2022-11-08T08:46:56.704Z,50.62
2022-11-08T08:47:56.954Z,50.62
2022-11-08T08:48:56.814Z,50.62
2022-11-08T08:49:56.684Z,50.62
2022-11-08T08:50:56.662Z,50.62
2022-11-08T08:51:56.684Z,50.62
2022-11-08T08:52:56.646Z,50.62
2022-11-08T08:53:56.612Z,50.62
2022-11-08T08:54:56.608Z,50.62
2022-11-08T08:55:56.625Z,50.62
2022-11-08T08:56:56.676Z,50.62
2022-11-08T08:57:56.616Z,50.62
2022-11-08T09:01:56.605Z,56.25
2022-11-08T09:02:56.592Z,50.62
2022-11-08T09:03:56.513Z,50.62
2022-11-08T09:04:56.485Z,50.62
2022-11-08T09:05:57.018Z,50.62
2022-11-08T09:06:56.592Z,50.62
2022-11-08T09:07:56.453Z,50.62
2022-11-08T09:08:56.557Z,50.62
2022-11-08T09:09:56.451Z,50.62
2022-11-08T09:10:56.427Z,50.62
2022-11-08T09:11:56.499Z,50.62
2022-11-08T09:12:56.386Z,50.62
2022-11-08T09:13:56.517Z,50.62
2022-11-08T09:14:56.386Z,50.62
2022-11-08T09:15:56.458Z,50.62
2022-11-08T09:16:56.402Z,50.62
2022-11-08T09:17:56.398Z,50.62
2022-11-08T09:18:56.327Z,50.62
2022-11-08T09:19:57.444Z,50.62
2022-11-08T09:20:56.309Z,50.62
2022-11-08T09:21:56.381Z,56.25
2022-11-08T09:22:56.381Z,56.25
2022-11-08T09:23:56.333Z,56.25
2022-11-08T09:24:56.380Z,61.88
2022-11-08T09:25:56.303Z,56.25
2022-11-08T09:26:56.320Z,56.25
2022-11-08T09:27:56.285Z,56.25
2022-11-08T09:28:56.362Z,56.25
2022-11-08T09:29:56.269Z,56.25
2022-11-08T09:30:56.264Z,56.25
2022-11-08T09:31:56.370Z,61.88
2022-11-08T09:33:01.207Z,67.50
2022-11-08T09:33:56.296Z,78.75
2022-11-08T09:34:56.192Z,73.12
2022-11-08T09:35:56.169Z,73.12
2022-11-08T09:36:56.154Z,73.12
2022-11-08T09:37:56.162Z,90.00
2022-11-08T09:38:56.148Z,106.88
2022-11-08T09:39:56.345Z,106.88
2022-11-08T09:40:56.153Z,101.25
2022-11-08T09:41:56.229Z,90.00
2022-11-08T09:42:56.180Z,84.38
2022-11-08T09:43:56.124Z,78.75
2022-11-08T09:44:56.083Z,90.00
2022-11-08T09:45:56.067Z,73.12
2022-11-08T09:46:56.038Z,61.88
2022-11-08T09:47:56.019Z,67.50
2022-11-08T09:48:56.006Z,73.12
2022-11-08T09:49:56.013Z,56.25
2022-11-08T09:50:56.015Z,67.50
2022-11-08T09:51:56.030Z,61.88
2022-11-08T09:52:56.027Z,61.88
2022-11-08T09:53:55.980Z,61.88
2022-11-08T09:54:55.941Z,73.12
2022-11-08T09:55:56.364Z,90.00
2022-11-08T09:56:55.975Z,61.88
2022-11-08T09:57:55.952Z,61.88
2022-11-08T09:58:57.375Z,61.88
2022-11-08T09:59:55.926Z,67.50
2022-11-08T10:00:55.893Z,78.75
2022-11-08T10:01:55.971Z,180.00
2022-11-08T10:02:56.029Z,118.12
2022-11-08T10:03:55.923Z,95.62
2022-11-08T10:04:55.957Z,95.62
2022-11-08T10:05:55.888Z,106.88
2022-11-08T10:07:01.927Z,101.25
2022-11-08T10:07:55.842Z,112.50
2022-11-08T10:08:55.815Z,129.38
2022-11-08T10:09:56.058Z,196.88
2022-11-08T10:10:55.878Z,157.50
2022-11-08T10:11:55.811Z,129.38
2022-11-08T10:12:55.767Z,106.88
2022-11-08T10:13:55.773Z,101.25
2022-11-08T10:14:55.808Z,95.62
2022-11-08T10:15:55.737Z,90.00
2022-11-08T10:16:55.697Z,90.00
2022-11-08T10:17:55.695Z,106.88
2022-11-08T10:18:55.730Z,106.88
2022-11-08T10:19:55.674Z,101.25
2022-11-08T10:20:55.655Z,95.62
2022-11-08T10:21:55.676Z,95.62
2022-11-08T10:22:55.655Z,95.62
2022-11-08T10:23:55.652Z,90.00
2022-11-08T10:24:55.641Z,84.38
2022-11-08T10:25:55.616Z,84.38
2022-11-08T10:26:55.640Z,84.38
2022-11-08T10:27:55.590Z,84.38
2022-11-08T10:28:55.700Z,95.62
2022-11-08T10:29:55.739Z,90.00
2022-11-08T10:30:55.591Z,90.00
2022-11-08T10:31:55.625Z,90.00
2022-11-08T10:32:55.550Z,90.00
2022-11-08T10:33:55.564Z,90.00
2022-11-08T10:34:55.518Z,90.00
2022-11-08T10:36:01.575Z,90.00
2022-11-08T10:36:55.483Z,90.00
2022-11-08T10:37:55.481Z,95.62
2022-11-08T10:38:55.502Z,101.25
2022-11-08T10:39:55.504Z,101.25
2022-11-08T10:40:55.431Z,106.88
2022-11-08T10:41:55.440Z,95.62
2022-11-08T10:42:55.420Z,101.25
2022-11-08T10:43:55.433Z,95.62
2022-11-08T10:44:55.419Z,90.00
2022-11-08T10:45:55.385Z,101.25
2022-11-08T10:46:55.380Z,101.25
2022-11-08T10:47:55.365Z,106.88
2022-11-08T10:48:55.341Z,106.88
2022-11-08T10:49:59.538Z,95.62
2022-11-08T10:50:55.341Z,90.00
2022-11-08T10:51:55.329Z,90.00
2022-11-08T10:52:55.329Z,84.38
2022-11-08T10:53:55.359Z,90.00
2022-11-08T10:54:55.320Z,95.62
2022-11-08T10:55:55.295Z,90.00
2022-11-08T10:56:55.274Z,84.38
2022-11-08T10:57:55.275Z,78.75
2022-11-08T10:58:55.239Z,78.75
2022-11-08T10:59:55.623Z,78.75
2022-11-08T11:00:55.230Z,78.75
2022-11-08T11:01:55.364Z,73.12
2022-11-08T11:02:55.205Z,78.75
2022-11-08T11:03:55.199Z,73.12
2022-11-08T11:04:55.231Z,73.12
2022-11-08T11:05:55.160Z,61.88
2022-11-08T11:06:55.231Z,56.25
2022-11-08T11:07:59.275Z,50.62
2022-11-08T11:08:55.160Z,56.25
2022-11-08T11:09:55.134Z,56.25
2022-11-08T11:10:55.117Z,56.25
2022-11-08T11:11:55.104Z,50.62
2022-11-08T11:12:55.124Z,56.25
2022-11-08T11:13:55.075Z,56.25
2022-11-08T11:14:55.061Z,61.88
2022-11-08T11:15:55.074Z,61.88
2022-11-08T11:16:55.245Z,67.50
2022-11-08T11:17:55.036Z,67.50
2022-11-08T11:18:55.031Z,67.50
2022-11-08T11:19:55.005Z,67.50
2022-11-08T11:20:55.004Z,67.50
2022-11-08T11:21:55.003Z,73.12
2022-11-08T11:22:54.973Z,78.75
2022-11-08T11:23:54.974Z,84.38
2022-11-08T11:24:54.963Z,84.38
2022-11-08T11:25:54.940Z,90.00
2022-11-08T11:26:54.958Z,90.00
2022-11-08T11:27:54.918Z,90.00
2022-11-08T11:28:54.940Z,90.00
2022-11-08T11:29:54.915Z,95.62
2022-11-08T11:30:54.890Z,90.00
2022-11-08T11:31:54.896Z,95.62
2022-11-08T11:32:54.934Z,95.62
2022-11-08T11:33:54.862Z,95.62
2022-11-08T11:34:54.849Z,101.25
2022-11-08T11:35:54.852Z,101.25
2022-11-08T11:36:54.827Z,101.25
2022-11-08T11:37:54.829Z,112.50
2022-11-08T11:38:54.843Z,112.50
2022-11-08T11:39:54.821Z,118.12
2022-11-08T11:40:54.836Z,112.50
2022-11-08T11:41:54.790Z,106.88
2022-11-08T11:42:54.790Z,112.50
2022-11-08T11:43:54.745Z,118.12
2022-11-08T11:44:54.747Z,118.12
2022-11-08T11:45:54.731Z,135.00
2022-11-08T11:46:54.722Z,118.12
2022-11-08T11:47:54.723Z,118.12
2022-11-08T11:48:54.706Z,112.50
2022-11-08T11:49:54.691Z,118.12
2022-11-08T11:50:54.749Z,112.50
2022-11-08T11:51:54.668Z,118.12
2022-11-08T11:52:54.691Z,146.25
2022-11-08T11:53:54.664Z,270.00
2022-11-08T11:54:54.644Z,174.38
2022-11-08T11:55:54.642Z,146.25
2022-11-08T11:56:54.633Z,123.75
2022-11-08T11:57:54.620Z,146.25
2022-11-08T11:58:54.614Z,196.88
2022-11-08T11:59:54.590Z,129.38
2022-11-08T12:00:54.576Z,157.50
2022-11-08T12:01:54.639Z,106.88
2022-11-08T12:02:54.564Z,106.88
2022-11-08T12:03:54.552Z,106.88
2022-11-08T12:04:54.522Z,106.88
2022-11-08T12:05:54.511Z,123.75
2022-11-08T12:06:54.552Z,112.50
2022-11-08T12:07:54.492Z,106.88
2022-11-08T12:08:54.656Z,106.88
2022-11-08T12:09:54.474Z,106.88
2022-11-08T12:10:54.477Z,106.88
2022-11-08T12:11:54.454Z,118.12
2022-11-08T12:12:54.451Z,112.50
2022-11-08T12:13:54.828Z,112.50
2022-11-08T12:15:00.472Z,129.38
2022-11-08T12:15:54.445Z,112.50
2022-11-08T12:16:54.411Z,106.88
2022-11-08T12:17:54.390Z,106.88
2022-11-08T12:18:54.679Z,101.25
2022-11-08T12:19:54.437Z,90.00
2022-11-08T12:20:54.364Z,84.38
2022-11-08T12:21:54.396Z,90.00
2022-11-08T12:22:54.425Z,84.38
2022-11-08T12:23:54.359Z,78.75
2022-11-08T12:24:54.333Z,67.50
2022-11-08T12:25:54.333Z,67.50
2022-11-08T12:26:54.311Z,61.88
2022-11-08T12:27:54.296Z,56.25
2022-11-08T12:28:54.530Z,50.62
2022-11-08T12:29:54.623Z,50.62
2022-11-08T12:30:54.277Z,50.62
2022-11-08T12:31:54.245Z,50.62
2022-11-08T12:32:54.243Z,50.62
2022-11-08T12:33:57.967Z,50.62
2022-11-08T12:34:54.251Z,50.62
2022-11-08T12:35:54.296Z,50.62
2022-11-08T12:36:54.206Z,45.00
2022-11-08T12:37:54.189Z,45.00
2022-11-08T12:38:55.076Z,45.00
2022-11-08T12:39:54.179Z,50.62
2022-11-08T12:40:54.156Z,56.25
2022-11-08T12:41:54.138Z,56.25
2022-11-08T12:42:54.136Z,61.88
2022-11-08T12:43:54.123Z,67.50
2022-11-08T12:44:54.129Z,73.12
2022-11-08T12:45:54.104Z,73.12
2022-11-08T12:46:54.103Z,73.12
2022-11-08T12:47:54.075Z,73.12
2022-11-08T12:48:54.076Z,73.12
2022-11-08T12:49:54.281Z,73.12
2022-11-08T12:50:56.336Z,73.12
2022-11-08T12:51:54.058Z,73.12
2022-11-08T12:52:54.026Z,73.12
2022-11-08T12:53:54.019Z,78.75
2022-11-08T12:54:54.023Z,78.75
2022-11-08T12:55:53.988Z,78.75
2022-11-08T12:56:53.999Z,78.75
2022-11-08T12:57:53.974Z,78.75
2022-11-08T12:58:53.975Z,78.75
2022-11-08T12:59:53.942Z,90.00
2022-11-08T13:00:54.961Z,95.62
2022-11-08T13:01:53.997Z,118.12
2022-11-08T13:02:53.983Z,129.38
2022-11-08T13:03:53.921Z,112.50
2022-11-08T13:04:53.977Z,101.25
2022-11-08T13:05:53.893Z,95.62
2022-11-08T13:06:53.966Z,101.25